Time;durP1;ratioP1;P1;durP2;ratioP2;P2;SDS_P1;SDS_P2;PMS_P1;PMS_P2;Temp;Humidity;BMP_temperature;BMP_pressure;BME280_temperature;BME280_humidity;BME280_pressure;Samples;Min_cycle;Max_cycle;Signal;HPM_P1;HPM_P2
2023/04/17 00:01:22;;;;;;;5.75;2.33;;;;;;;17.12;64.52;98227.47;4996669;28;20036;-79
2023/04/17 00:03:51;;;;;;;3.50;1.95;;;;;;;17.08;64.50;98228.84;4996747;28;20030;-80
2023/04/17 00:06:17;;;;;;;3.63;2.35;;;;;;;17.12;64.54;98230.13;4964962;28;20054;-80
2023/04/17 00:08:43;;;;;;;4.72;2.42;;;;;;;17.10;64.48;98218.94;4980129;28;20092;-80
2023/04/17 00:11:09;;;;;;;4.38;2.15;;;;;;;17.13;64.47;98223.06;4996730;28;20041;-79
2023/04/17 00:13:35;;;;;;;3.70;1.98;;;;;;;17.12;64.30;98216.94;4996758;28;20441;-79
2023/04/17 00:16:00;;;;;;;4.40;2.30;;;;;;;17.12;64.30;98209.03;4980146;28;20105;-79
2023/04/17 00:18:25;;;;;;;3.67;1.92;;;;;;;17.12;64.33;98211.66;4979890;28;20080;-80
2023/04/17 00:20:52;;;;;;;4.10;2.10;;;;;;;17.11;64.41;98217.09;4996626;28;20037;-80
2023/04/17 00:23:17;;;;;;;4.40;2.20;;;;;;;17.11;64.34;98220.59;4979642;28;20048;-79
2023/04/17 00:25:43;;;;;;;4.22;2.00;;;;;;;17.08;64.22;98218.28;4980486;28;20116;-79
2023/04/17 00:28:09;;;;;;;3.38;2.05;;;;;;;17.09;64.47;98214.63;4979611;28;20053;-79
2023/04/17 00:30:34;;;;;;;2.88;1.92;;;;;;;17.09;64.34;98219.91;4980129;28;20042;-79
2023/04/17 00:33:00;;;;;;;4.82;2.20;;;;;;;17.08;64.27;98213.00;4964226;28;20048;-79
2023/04/17 00:35:25;;;;;;;4.63;2.45;;;;;;;17.09;64.27;98219.09;4963915;28;20437;-77
2023/04/17 00:37:51;;;;;;;4.72;2.10;;;;;;;17.08;64.27;98217.44;4995985;28;20554;-77
2023/04/17 00:40:17;;;;;;;3.53;1.83;;;;;;;17.03;64.38;98203.97;5013892;28;20022;-77
2023/04/17 00:42:44;;;;;;;3.72;1.90;;;;;;;17.05;64.21;98213.34;4988535;28;20041;-77
2023/04/17 00:45:10;;;;;;;4.57;1.98;;;;;;;16.99;64.15;98201.66;4995546;28;20046;-77
2023/04/17 00:47:36;;;;;;;4.00;1.80;;;;;;;16.98;64.11;98201.84;4982037;28;20129;-77
2023/04/17 00:50:02;;;;;;;3.58;1.88;;;;;;;16.97;64.24;98202.84;4982634;28;20025;-79
2023/04/17 00:52:28;;;;;;;2.33;1.70;;;;;;;16.94;64.22;98205.81;4988018;28;20042;-77
2023/04/17 00:54:54;;;;;;;3.78;1.85;;;;;;;16.89;64.25;98193.16;4999192;28;20048;-77
2023/04/17 00:57:20;;;;;;;2.55;1.70;;;;;;;16.89;64.15;98194.94;4982654;28;20057;-77
2023/04/17 00:59:46;;;;;;;3.95;1.60;;;;;;;16.86;64.26;98193.50;4982494;28;20576;-77
2023/04/17 01:02:11;;;;;;;4.13;1.95;;;;;;;16.85;64.15;98191.81;4979424;28;20065;-77
2023/04/17 01:04:37;;;;;;;2.53;1.60;;;;;;;16.81;64.19;98191.34;4979104;28;20076;-77
2023/04/17 01:07:02;;;;;;;2.58;1.50;;;;;;;16.79;64.27;98192.50;4995458;28;20033;-78
2023/04/17 01:09:28;;;;;;;3.55;1.60;;;;;;;16.76;64.43;98191.03;4982619;28;20118;-77
2023/04/17 01:12:23;;;;;;;4.03;2.08;;;;;;;16.71;64.41;98181.97;4998687;28;20045;-77
2023/04/17 01:14:51;;;;;;;3.97;2.17;;;;;;;16.69;64.44;98192.69;5032803;28;20021;-77
2023/04/17 01:17:20;;;;;;;4.55;1.92;;;;;;;16.67;64.29;98184.13;4998515;28;20034;-77
2023/04/17 01:19:46;;;;;;;3.35;1.85;;;;;;;16.67;64.36;98183.28;4999784;28;20033;-77
2023/04/17 01:22:12;;;;;;;2.83;1.85;;;;;;;16.63;64.49;98181.03;4998975;28;20113;-77
2023/04/17 01:24:37;;;;;;;3.90;2.03;;;;;;;16.59;64.44;98178.91;4998590;28;20028;-77
2023/04/17 01:27:03;;;;;;;4.35;1.95;;;;;;;16.60;64.53;98181.38;4998839;28;20171;-80
2023/04/17 01:29:29;;;;;;;3.65;1.80;;;;;;;16.58;64.63;98170.16;5013731;28;20052;-78
2023/04/17 01:31:54;;;;;;;3.53;2.03;;;;;;;16.56;64.53;98166.88;4982151;28;20033;-78
2023/04/17 01:34:20;;;;;;;3.00;1.80;;;;;;;16.54;64.46;98171.50;5014678;28;20025;-77
2023/04/17 01:36:45;;;;;;;3.92;1.83;;;;;;;16.52;64.44;98170.00;4982017;28;20026;-77
2023/04/17 01:39:11;;;;;;;3.53;1.83;;;;;;;16.51;64.54;98179.75;4998327;28;20040;-78
2023/04/17 01:41:36;;;;;;;3.03;1.67;;;;;;;16.48;64.63;98173.97;4998377;28;20026;-77
2023/04/17 01:44:02;;;;;;;3.40;1.75;;;;;;;16.45;64.44;98175.94;5032450;28;20069;-77
2023/04/17 01:46:27;;;;;;;2.60;1.60;;;;;;;16.48;64.73;98173.97;4982513;28;20056;-77
2023/04/17 01:48:53;;;;;;;4.22;1.70;;;;;;;16.48;64.86;98179.22;4998321;28;20495;-77
2023/04/17 01:51:18;;;;;;;3.70;2.05;;;;;;;16.48;64.95;98192.41;5014692;28;20065;-77
2023/04/17 01:53:44;;;;;;;2.67;1.58;;;;;;;16.48;64.74;98202.94;4998149;28;20030;-77
2023/04/17 01:56:10;;;;;;;3.88;1.92;;;;;;;16.48;64.66;98243.31;4997327;28;20048;-77
2023/04/17 01:58:35;;;;;;;3.65;1.83;;;;;;;16.46;64.63;98255.78;5032160;28;20033;-77
2023/04/17 02:01:01;;;;;;;3.67;1.92;;;;;;;16.43;64.28;98224.50;4981899;28;20554;-77
2023/04/17 02:03:26;;;;;;;5.57;1.90;;;;;;;16.43;64.04;98212.19;4997801;28;20029;-76
2023/04/17 02:05:52;;;;;;;3.83;2.00;;;;;;;16.42;64.00;98209.72;4997049;28;20053;-77
2023/04/17 02:08:18;;;;;;;4.50;2.17;;;;;;;16.39;63.99;98205.59;4997900;28;20037;-77
2023/04/17 02:10:43;;;;;;;3.10;2.03;;;;;;;16.39;63.94;98210.88;4981674;28;20127;-77
2023/04/17 02:13:09;;;;;;;4.03;1.95;;;;;;;16.40;64.11;98209.06;4981854;28;20038;-78
2023/04/17 02:15:35;;;;;;;3.65;2.20;;;;;;;16.38;64.21;98190.81;4981741;28;20053;-77
2023/04/17 02:18:02;;;;;;;2.88;1.90;;;;;;;16.38;64.21;98172.38;4998132;28;20026;-78
2023/04/17 02:20:27;;;;;;;4.00;2.00;;;;;;;16.36;64.19;98155.88;4998299;28;20428;-77
2023/04/17 02:22:53;;;;;;;3.95;2.30;;;;;;;16.37;64.21;98160.19;4996708;28;20045;-77
2023/04/17 02:25:19;;;;;;;3.92;2.08;;;;;;;16.37;64.13;98169.91;4981384;28;20049;-76
2023/04/17 02:27:45;;;;;;;4.70;2.40;;;;;;;16.36;64.24;98174.31;4997909;28;20038;-76
2023/04/17 02:30:11;;;;;;;3.97;2.20;;;;;;;16.35;64.27;98172.69;4998097;28;20034;-77
2023/04/17 02:32:36;;;;;;;3.50;2.25;;;;;;;16.36;64.10;98181.41;5014054;28;20022;-76
2023/04/17 02:35:02;;;;;;;3.00;2.05;;;;;;;16.31;64.32;98183.72;4981549;28;20030;-77
2023/04/17 02:37:27;;;;;;;3.70;2.03;;;;;;;16.33;64.26;98189.66;4997623;28;20057;-78
2023/04/17 02:39:53;;;;;;;4.30;2.08;;;;;;;16.30;64.36;98177.63;4997573;28;20025;-77
2023/04/17 02:42:18;;;;;;;3.85;2.10;;;;;;;16.31;64.26;98174.00;5015469;28;20495;-77
2023/04/17 02:44:45;;;;;;;3.85;2.15;;;;;;;16.33;64.34;98172.03;5017389;28;20068;-78
2023/04/17 02:47:11;;;;;;;3.95;2.20;;;;;;;16.29;64.45;98170.72;5017940;28;20087;-78
2023/04/17 02:49:36;;;;;;;2.92;2.17;;;;;;;16.33;64.32;98184.38;5001194;28;20404;-77
2023/04/17 02:52:03;;;;;;;3.30;2.03;;;;;;;16.32;64.47;98180.09;5001273;28;20067;-78
2023/04/17 02:54:28;;;;;;;3.72;2.10;;;;;;;16.31;64.35;98181.91;5001397;28;20152;-79
2023/04/17 02:56:57;;;;;;;6.43;2.20;;;;;;;16.32;64.24;98173.03;5017441;28;20488;-77
2023/04/17 02:59:24;;;;;;;5.18;2.30;;;;;;;16.30;64.40;98175.00;5017997;28;20030;-77
2023/04/17 03:01:49;;;;;;;4.00;2.30;;;;;;;16.29;64.37;98194.44;5000219;28;20045;-77
2023/04/17 03:04:15;;;;;;;4.47;2.30;;;;;;;16.28;64.31;98205.94;5000933;28;20484;-77
2023/04/17 03:06:40;;;;;;;3.28;2.20;;;;;;;16.26;64.30;98229.00;5000515;28;20054;-77
2023/04/17 03:09:06;;;;;;;4.38;2.25;;;;;;;16.28;64.33;98258.63;5001266;28;20025;-76
2023/04/17 03:11:31;;;;;;;5.28;2.35;;;;;;;16.32;65.27;98273.13;5016500;28;20412;-82
2023/04/17 03:13:57;;;;;;;13.85;2.75;;;;;;;16.29;64.98;98244.47;5017513;28;20033;-78
2023/04/17 03:16:22;;;;;;;3.83;2.35;;;;;;;16.25;65.07;98219.44;4984168;28;20412;-79
2023/04/17 03:18:48;;;;;;;4.53;2.30;;;;;;;16.25;65.00;98212.34;4983910;28;20049;-79
2023/04/17 03:21:13;;;;;;;4.25;2.53;;;;;;;16.24;64.90;98210.72;5000888;28;20045;-79
2023/04/17 03:23:40;;;;;;;3.65;2.63;;;;;;;16.24;64.95;98205.47;5000336;28;20126;-79
2023/04/17 03:26:06;;;;;;;5.13;2.50;;;;;;;16.18;64.94;98207.94;5000673;28;20076;-80
2023/04/17 03:28:31;;;;;;;5.28;2.70;;;;;;;16.19;64.72;98207.78;4984558;28;20053;-79
2023/04/17 03:30:58;;;;;;;5.45;2.70;;;;;;;16.18;64.73;98210.59;5000474;28;20411;-78
2023/04/17 03:33:24;;;;;;;4.80;2.47;;;;;;;16.12;64.78;98198.88;5000878;28;20032;-79
2023/04/17 03:35:50;;;;;;;5.57;3.00;;;;;;;16.14;64.83;98204.81;4984072;28;20041;-79
2023/04/17 03:38:16;;;;;;;6.20;2.92;;;;;;;16.09;64.71;98191.31;5000086;28;20479;-79
2023/04/17 03:40:41;;;;;;;4.57;2.63;;;;;;;16.09;64.79;98194.75;5000969;28;20033;-78
2023/04/17 03:43:07;;;;;;;5.75;2.95;;;;;;;16.08;64.41;98195.78;5016961;28;20520;-78
2023/04/17 03:45:32;;;;;;;5.32;2.80;;;;;;;16.07;64.86;98198.56;5016653;28;20094;-78
2023/04/17 03:47:58;;;;;;;5.90;2.88;;;;;;;16.06;64.80;98202.19;5016622;28;20030;-78
2023/04/17 03:50:23;;;;;;;3.03;2.28;;;;;;;16.03;64.86;98208.59;4983994;28;20041;-78
2023/04/17 03:52:49;;;;;;;3.58;2.53;;;;;;;16.02;64.89;98199.06;4999973;28;20129;-78
2023/04/17 03:55:15;;;;;;;4.88;2.78;;;;;;;16.04;65.08;98193.63;4980732;28;20448;-78
2023/04/17 03:57:41;;;;;;;4.35;3.00;;;;;;;16.02;64.86;98199.06;4980613;28;20462;-77
2023/04/17 04:00:09;;;;;;;6.45;2.53;;;;;;;16.03;64.83;98200.69;4980385;28;20044;-77
2023/04/17 04:02:35;;;;;;;3.10;2.38;;;;;;;16.02;64.78;98175.38;4981168;28;20045;-77
2023/04/17 04:05:01;;;;;;;5.05;2.58;;;;;;;16.02;65.01;98159.56;4996260;28;20049;-79
2023/04/17 04:07:26;;;;;;;3.75;2.60;;;;;;;16.02;65.03;98159.56;4996026;28;20041;-80
2023/04/17 04:09:52;;;;;;;4.07;2.70;;;;;;;16.01;64.87;98157.91;4996503;28;20034;-79
2023/04/17 04:12:17;;;;;;;3.42;2.38;;;;;;;16.01;65.02;98159.75;4979973;28;20034;-80
2023/04/17 04:14:42;;;;;;;6.43;2.50;;;;;;;16.01;65.08;98171.09;4980251;28;20061;-80
2023/04/17 04:17:08;;;;;;;3.80;2.70;;;;;;;16.02;65.12;98166.63;4979919;28;20451;-79
2023/04/17 04:19:33;;;;;;;3.63;2.55;;;;;;;16.03;64.82;98169.09;4996473;28;20034;-79
2023/04/17 04:21:59;;;;;;;4.13;2.47;;;;;;;16.05;64.77;98179.47;4980427;28;20061;-79
2023/04/17 04:24:24;;;;;;;4.00;2.50;;;;;;;16.06;64.83;98176.66;4996456;28;20088;-78
2023/04/17 04:26:50;;;;;;;3.92;2.50;;;;;;;16.08;64.47;98179.97;4995893;28;20099;-79
2023/04/17 04:29:16;;;;;;;3.58;2.50;;;;;;;16.10;64.47;98175.34;4980018;28;20092;-79
2023/04/17 04:31:45;;;;;;;5.53;2.88;;;;;;;16.09;64.55;98160.53;4980370;28;20080;-77
2023/04/17 04:34:12;;;;;;;3.92;2.53;;;;;;;16.15;64.52;98163.50;4964600;28;20485;-78
2023/04/17 04:36:40;;;;;;;4.20;2.90;;;;;;;16.21;64.42;98161.03;4995868;28;20125;-77
2023/04/17 04:39:06;;;;;;;;;;;;;;;16.29;65.91;98173.38;4997098;28;20033;-78
2023/04/17 04:41:34;;;;;;;3.95;2.35;;;;;;;16.29;65.51;98181.25;4995996;28;20431;-78
2023/04/17 04:44:02;;;;;;;8.52;2.42;;;;;;;16.58;72.21;98180.69;4981452;28;20037;-80
2023/04/17 04:46:28;;;;;;;11.98;2.58;;;;;;;16.64;70.72;98190.56;4964384;28;20041;-79
2023/04/17 04:48:53;;;;;;;6.07;2.20;;;;;;;16.64;69.26;98202.91;4979660;28;20026;-78
2023/04/17 04:51:18;;;;;;;10.20;2.20;;;;;;;16.60;68.34;98204.22;4979977;28;20060;-78
2023/04/17 04:53:44;;;;;;;9.32;2.47;;;;;;;16.62;67.59;98203.09;4979551;28;20041;-82
2023/04/17 04:56:10;;;;;;;9.52;2.70;;;;;;;16.87;73.08;98204.84;4997321;28;20091;-92
2023/04/17 04:58:37;;;;;;;12.57;3.00;;;;;;;17.03;72.44;98218.00;4980053;28;20097;-83
2023/04/17 05:01:03;;;;;;;5.63;2.70;;;;;;;17.01;70.89;98217.31;4964108;28;20022;-79
2023/04/17 05:03:30;;;;;;;8.55;2.45;;;;;;;16.96;69.60;98220.47;4979506;28;20104;-79
2023/04/17 05:05:55;;;;;;;8.13;2.13;;;;;;;17.01;71.04;98217.31;4970487;28;20053;-78
2023/04/17 05:08:21;;;;;;;8.48;2.50;;;;;;;17.10;71.56;98221.56;4980945;28;20037;-78
2023/04/17 05:10:46;;;;;;;12.35;2.00;;;;;;;17.06;70.40;98217.63;4979443;28;20045;-81
2023/04/17 05:13:12;;;;;;;15.65;2.33;;;;;;;17.02;69.70;98213.69;4963432;28;20033;-81
2023/04/17 05:15:37;;;;;;;5.57;2.88;;;;;;;16.99;70.30;98219.31;4963499;28;20033;-79
2023/04/17 05:18:04;;;;;;;5.55;2.70;;;;;;;16.95;69.54;98221.47;4980734;28;20525;-83
2023/04/17 05:20:30;;;;;;;11.90;2.50;;;;;;;16.90;69.02;98223.78;4998929;28;20109;-79
2023/04/17 05:22:56;;;;;;;8.15;2.88;;;;;;;16.87;68.50;98225.94;4997416;28;20049;-79
2023/04/17 05:25:25;;;;;;;13.43;2.63;;;;;;;16.81;68.23;98228.25;4963299;28;20481;-83
2023/04/17 05:27:51;;;;;;;10.52;2.45;;;;;;;16.79;68.19;98232.03;5014634;28;20029;-80
2023/04/17 05:30:16;;;;;;;9.20;2.65;;;;;;;16.73;68.14;98236.19;5012758;28;20524;-80
2023/04/17 05:32:42;;;;;;;16.13;4.28;;;;;;;16.86;73.46;98235.66;4995605;28;20108;-81
2023/04/17 05:35:08;;;;;;;15.40;3.58;;;;;;;17.03;74.38;98232.97;4974159;28;20037;-81
2023/04/17 05:37:34;;;;;;;11.90;3.25;;;;;;;17.11;72.04;98236.41;4978949;28;20552;-79
2023/04/17 05:40:00;;;;;;;12.30;3.10;;;;;;;17.07;71.21;98239.56;4962992;28;20168;-81
2023/04/17 05:42:25;;;;;;;14.40;3.38;;;;;;;17.01;70.93;98248.94;4962871;28;20049;-79
2023/04/17 05:44:51;;;;;;;19.38;5.25;;;;;;;17.07;77.35;98247.47;4963460;28;20420;-80
2023/04/17 05:47:16;;;;;;;16.80;7.65;;;;;;;17.13;81.14;98247.59;4979372;28;20029;-80
2023/04/17 05:49:43;;;;;;;21.45;8.50;;;;;;;17.22;83.86;98242.28;4986544;28;20100;-80
2023/04/17 05:52:09;;;;;;;20.85;5.32;;;;;;;17.45;82.86;98240.53;5004188;28;20048;-85
2023/04/17 05:54:34;;;;;;;12.18;4.50;;;;;;;17.57;78.60;98250.69;4982461;28;20049;-80
2023/04/17 05:57:01;;;;;;;10.13;4.07;;;;;;;17.59;76.15;98246.88;5015427;28;20053;-80
2023/04/17 05:59:26;;;;;;;6.10;3.88;;;;;;;17.56;74.15;98235.88;4982715;28;20132;-78
2023/04/17 06:01:52;;;;;;;7.40;4.10;;;;;;;17.47;71.47;98235.91;4997413;28;20492;-81
2023/04/17 06:04:17;;;;;;;8.10;3.80;;;;;;;17.48;72.67;98242.00;4981279;28;20034;-79
2023/04/17 06:06:43;;;;;;;12.07;4.18;;;;;;;17.53;72.89;98243.09;4982472;28;20582;-79
2023/04/17 06:09:09;;;;;;;7.00;4.20;;;;;;;17.48;70.28;98242.00;4981621;28;20052;-81
2023/04/17 06:11:35;;;;;;;16.10;4.00;;;;;;;17.45;69.51;98240.53;4998566;28;20026;-80
2023/04/17 06:14:01;;;;;;;19.63;4.22;;;;;;;17.53;71.97;98252.84;5001535;28;20052;-77
2023/04/17 06:16:27;;;;;;;27.27;8.82;;;;;;;17.69;74.41;98258.03;5020956;28;20484;-82
2023/04/17 06:18:53;;;;;;;11.13;4.60;;;;;;;17.78;73.51;98250.06;5003884;28;20025;-86
2023/04/17 06:21:20;;;;;;;9.40;4.45;;;;;;;17.77;73.00;98253.69;5010990;28;20048;-87
2023/04/17 06:23:45;;;;;;;9.25;4.72;;;;;;;17.76;73.37;98259.97;4996883;28;20046;-85
2023/04/17 06:26:11;;;;;;;7.32;4.43;;;;;;;17.69;72.07;98265.94;5026358;28;20053;-86
2023/04/17 06:28:36;;;;;;;9.98;4.40;;;;;;;17.74;73.83;98262.78;5014721;28;20038;-88
2023/04/17 06:31:02;;;;;;;6.53;4.40;;;;;;;17.73;70.77;98267.25;5010277;28;20052;-81
2023/04/17 06:33:27;;;;;;;7.97;3.95;;;;;;;17.62;69.64;98262.38;4991040;28;20041;-85
2023/04/17 06:35:53;;;;;;;9.68;4.85;;;;;;;17.64;70.59;98276.22;4990362;28;20038;-80
2023/04/17 06:38:19;;;;;;;7.93;3.85;;;;;;;17.62;68.72;98269.47;5010372;28;20064;-80
2023/04/17 06:40:45;;;;;;;16.73;3.80;;;;;;;17.84;68.86;98275.78;5008635;28;20236;-88
2023/04/17 06:43:11;;;;;;;21.35;4.03;;;;;;;17.96;68.54;98292.06;5010126;28;20029;-88
2023/04/17 06:45:36;;;;;;;9.00;3.63;;;;;;;17.95;65.48;98296.53;5001246;28;20068;-85
2023/04/17 06:48:02;;;;;;;10.65;3.25;;;;;;;17.96;64.19;98292.88;5023814;28;20029;-82
2023/04/17 06:50:28;;;;;;;6.78;3.38;;;;;;;18.01;65.04;98305.56;5027377;28;20069;-87
2023/04/17 06:52:55;;;;;;;12.88;3.50;;;;;;;17.99;64.01;98310.19;4994845;28;20063;-89
2023/04/17 06:55:20;;;;;;;8.52;3.22;;;;;;;17.93;63.72;98314.34;5019966;28;20093;-83
2023/04/17 06:57:46;;;;;;;8.38;3.55;;;;;;;18.03;65.16;98316.78;4998717;28;20009;-83
2023/04/17 07:00:12;;;;;;;8.80;3.67;;;;;;;18.07;66.32;98333.91;4995618;28;20041;-87
2023/04/17 07:03:15;;;;;;;9.10;3.60;;;;;;;18.06;63.18;98334.91;4998793;28;20026;-80
2023/04/17 07:05:43;;;;;;;12.57;4.90;;;;;;;18.16;66.89;98340.78;5016586;28;20098;-78
2023/04/17 07:08:09;;;;;;;;;;;;;;;18.23;66.82;98344.38;4999962;28;20464;-76
2023/04/17 07:10:34;;;;;;;10.65;4.60;;;;;;;18.33;68.85;98340.66;4997528;28;19920;-83
2023/04/17 07:13:06;;;;;;;9.40;4.35;;;;;;;18.35;68.64;98336.84;4982522;28;20030;-83
2023/04/17 07:15:33;;;;;;;11.95;3.92;;;;;;;18.45;69.16;98336.59;4982677;28;20453;-79
2023/04/17 07:17:59;;;;;;;9.57;3.70;;;;;;;18.56;67.60;98335.38;4964905;28;20025;-82
2023/04/17 07:20:25;;;;;;;11.18;4.07;;;;;;;18.69;66.39;98346.19;4981734;28;20033;-80
2023/04/17 07:23:10;;;;;;;7.97;3.80;;;;;;;18.76;65.55;98331.22;4974055;28;20034;-85
2023/04/17 07:25:36;;;;;;;5.38;3.67;;;;;;;18.80;64.61;98335.16;4996818;28;20049;-83
2023/04/17 07:28:06;;;;;;;7.25;3.35;;;;;;;18.86;67.35;98346.84;4980653;28;20034;-80
2023/04/17 07:30:31;;;;;;;7.50;3.55;;;;;;;18.84;64.53;98346.22;5016756;28;20069;-81
2023/04/17 07:32:57;;;;;;;12.05;4.15;;;;;;;19.02;67.90;98342.41;5006659;28;20069;-79
2023/04/17 07:35:22;;;;;;;10.15;4.05;;;;;;;19.14;66.33;98340.97;5001097;28;20537;-82
2023/04/17 07:37:49;;;;;;;9.20;3.25;;;;;;;19.19;68.70;98332.50;5009071;28;20093;-88
2023/04/17 07:40:16;;;;;;;6.93;3.53;;;;;;;19.28;68.18;98328.75;5126015;23;20033;-83
2023/04/17 07:42:42;;;;;;;14.35;3.50;;;;;;;19.44;67.67;98325.09;5044723;28;20564;-79
2023/04/17 07:45:09;;;;;;;13.35;3.05;;;;;;;19.51;67.22;98336.56;5040214;28;20119;-86
2023/04/17 07:47:34;;;;;;;12.95;2.97;;;;;;;19.55;66.52;98337.06;5000444;28;20076;-88
2023/04/17 07:50:00;;;;;;;14.70;4.13;;;;;;;19.55;64.05;98334.41;4971406;28;20124;-86
2023/04/17 07:52:25;;;;;;;16.52;4.57;;;;;;;19.44;62.10;98325.09;4995617;28;20022;-88
2023/04/17 07:57:20;;;;;;;222.77;33.53;;;;;;;19.23;62.77;98318.72;5133532;22;20064;-87
2023/04/17 07:59:46;;;;;;;120.85;18.58;;;;;;;19.27;61.29;98335.03;5134678;23;20060;-83
2023/04/17 08:02:12;;;;;;;97.03;17.02;;;;;;;19.14;60.96;98336.50;5003279;28;20025;-77
2023/04/17 08:04:38;;;;;;;84.50;16.10;;;;;;;19.08;60.55;98339.88;5012361;28;20490;-76
2023/04/17 08:07:05;;;;;;;76.05;14.93;;;;;;;19.00;60.54;98337.31;4958913;28;20182;-76
2023/04/17 08:09:31;;;;;;;85.80;14.80;;;;;;;18.84;60.66;98338.28;4958867;28;20690;-77
2023/04/17 08:12:06;;;;;;;74.63;12.95;;;;;;;18.76;60.47;98331.22;4961140;28;20046;-84
2023/04/17 08:14:32;;;;;;;52.72;11.75;;;;;;;18.60;60.54;98307.59;5011004;23;20149;-86
2023/04/17 08:17:00;;;;;;;47.50;10.27;;;;;;;18.69;60.77;98318.91;4990731;28;20042;-87
2023/04/17 08:19:26;;;;;;;204.48;33.50;;;;;;;18.97;66.59;98330.53;4974354;28;20053;-78
2023/04/17 08:21:57;;;;;;;147.77;25.67;;;;;;;19.28;65.35;98326.94;4973129;28;20031;-79
2023/04/17 08:24:23;;;;;;;108.75;19.63;;;;;;;19.44;63.99;98320.63;4957196;28;20031;-81
2023/04/17 08:26:48;;;;;;;96.45;18.90;;;;;;;19.64;63.05;98328.81;4961587;28;20045;-79
2023/04/17 08:29:14;;;;;;;94.28;17.92;;;;;;;19.69;62.88;98321.13;4956706;28;20035;-78
2023/04/17 08:31:40;;;;;;;95.95;17.00;;;;;;;19.70;63.37;98322.78;4940669;28;20030;-81
2023/04/17 08:34:06;;;;;;;80.55;16.15;;;;;;;19.72;62.98;98322.59;4956889;28;20035;-82
2023/04/17 08:36:32;;;;;;;70.15;13.93;;;;;;;19.58;62.78;98326.09;4957367;28;20506;-81
2023/04/17 08:38:57;;;;;;;64.30;15.00;;;;;;;19.42;63.55;98327.09;4973861;28;20023;-77
2023/04/17 08:41:25;;;;;;;55.50;12.93;;;;;;;19.24;63.87;98315.06;4956540;28;20482;-78
2023/04/17 08:43:52;;;;;;;62.40;13.25;;;;;;;19.24;64.91;98324.81;4957482;28;20058;-80
2023/04/17 08:46:20;;;;;;;62.70;13.43;;;;;;;19.31;64.85;98320.47;4956814;28;20041;-84
2023/04/17 08:48:46;;;;;;;57.83;13.10;;;;;;;19.34;64.41;98320.91;4972164;28;20042;-76
2023/04/17 08:51:12;;;;;;;51.17;11.93;;;;;;;19.44;64.59;98330.38;4972843;28;20434;-81
2023/04/17 08:53:37;;;;;;;68.28;13.07;;;;;;;19.39;64.96;98330.09;4973344;28;20031;-82
2023/04/17 08:56:08;;;;;;;42.53;11.07;;;;;;;19.44;65.44;98325.09;4980454;28;20119;-85
2023/04/17 08:58:34;;;;;;;53.08;13.00;;;;;;;19.41;65.38;98334.22;4967567;28;20030;-82
2023/04/17 09:01:08;;;;;;;43.75;13.07;;;;;;;19.30;68.19;98340.78;4999940;28;20058;-87
2023/04/17 09:03:47;;;;;;;41.53;11.77;;;;;;;19.14;68.71;98328.56;5003592;28;20085;-88
2023/04/17 09:06:13;;;;;;;36.45;10.80;;;;;;;19.07;68.62;98334.75;4973865;28;20494;-89
2023/04/17 09:08:39;;;;;;;38.35;9.68;;;;;;;18.96;68.26;98339.50;4969581;28;20041;-88
2023/04/17 09:11:17;;;;;;;47.70;11.77;;;;;;;18.97;68.40;98341.13;4962881;28;20038;-83
2023/04/17 09:13:42;;;;;;;;;;;;;;;19.03;68.95;98347.53;4995881;28;20065;-77
2023/04/17 09:16:12;;;;;;;50.83;11.35;;;;;;;19.06;68.75;98343.72;4997551;28;20404;-84
2023/04/17 09:18:39;;;;;;;43.50;10.98;;;;;;;18.94;68.13;98352.09;4982956;28;20030;-86
2023/04/17 09:21:05;;;;;;;37.88;10.82;;;;;;;18.79;67.98;98344.09;4967827;28;20038;-77
2023/04/17 09:23:44;;;;;;;39.80;10.68;;;;;;;18.79;68.83;98349.38;4996912;28;20023;-89
2023/04/17 09:26:13;;;;;;;35.75;11.20;;;;;;;18.66;68.31;98348.34;4970893;28;20517;-84
2023/04/17 09:28:44;;;;;;;40.97;10.70;;;;;;;18.53;67.76;98347.13;4976690;28;20501;-87
2023/04/17 09:31:19;;;;;;;32.15;9.50;;;;;;;18.42;67.89;98351.00;5001273;28;20517;-86
2023/04/17 09:34:07;;;;;;;33.78;9.05;;;;;;;18.32;67.92;98353.06;4999821;28;20456;-81
2023/04/17 09:39:19;;;;;;;32.15;9.23;;;;;;;18.18;67.70;98338.78;5391772;22;20057;-89
2023/04/17 09:41:44;;;;;;;25.40;8.48;;;;;;;18.18;68.16;98346.72;4997680;28;20424;-75
2023/04/17 09:44:24;;;;;;;38.88;11.95;;;;;;;18.63;74.66;98349.53;4981963;28;20042;-86
2023/04/17 09:46:50;;;;;;;41.88;11.07;;;;;;;18.79;75.00;98348.56;4986264;28;20090;-87
2023/04/17 09:51:45;;;;;;;44.05;10.18;;;;;;;18.87;72.58;98351.16;4979197;28;20062;-82
2023/04/17 09:54:11;;;;;;;32.55;9.20;;;;;;;18.86;71.93;98346.84;4970815;28;20043;-86
2023/04/17 09:56:36;;;;;;;32.88;9.43;;;;;;;19.07;72.53;98340.03;4935678;28;20065;-77
2023/04/17 09:59:04;;;;;;;43.88;12.73;;;;;;;19.17;74.26;98344.06;4936491;28;20031;-88
2023/04/17 10:01:31;;;;;;;39.83;11.85;;;;;;;19.53;73.37;98348.63;5001727;23;20059;-80
2023/04/17 10:03:57;;;;;;;1999.90;997.03;;;;;;;19.53;72.19;98342.53;4977028;28;20073;-81
2023/04/17 10:06:28;;;;;;;1647.13;882.13;;;;;;;19.57;68.82;98348.25;4975666;28;20118;-86
2023/04/17 10:08:54;;;;;;;1207.38;760.42;;;;;;;19.41;66.04;98351.94;4974847;28;20034;-83
2023/04/17 10:11:22;;;;;;;346.20;192.30;;;;;;;19.16;61.31;98339.81;4961172;28;20030;-84
2023/04/17 10:14:38;;;;;;;35.38;21.63;;;;;;;18.81;57.48;98344.72;4957361;28;20026;-92
2023/04/17 10:17:23;;;;;;;9.82;4.80;;;;;;;18.42;57.34;98344.88;4933534;29;20072;-89
2023/04/17 10:19:49;;;;;;;38.10;21.27;;;;;;;18.13;59.27;98341.13;4928313;29;20039;-76
2023/04/17 10:22:14;;;;;;;235.80;128.40;;;;;;;18.10;64.27;98338.03;4897295;29;20441;-76
2023/04/17 10:24:43;;;;;;;228.43;131.85;;;;;;;18.03;65.09;98337.91;4895370;29;20461;-76
2023/04/17 10:27:27;;;;;;;269.90;153.88;;;;;;;18.17;66.55;98339.81;4887463;29;20041;-78
2023/04/17 10:29:55;;;;;;;319.00;187.93;;;;;;;18.32;69.02;98344.31;4906365;29;20082;-79
2023/04/17 10:32:27;;;;;;;329.80;197.82;;;;;;;18.56;70.30;98338.00;4897171;29;20072;-78
2023/04/17 10:34:57;;;;;;;268.35;151.65;;;;;;;18.57;69.59;98337.84;4894643;29;20037;-76
2023/04/17 10:37:50;;;;;;;238.95;134.75;;;;;;;18.59;67.70;98335.81;4890926;29;20063;-80
2023/04/17 10:40:28;;;;;;;205.38;118.03;;;;;;;18.65;69.31;98333.50;4920424;29;20028;-84
2023/04/17 10:43:22;;;;;;;187.77;107.00;;;;;;;18.85;68.32;98334.66;4868009;29;20127;-77
2023/04/17 10:46:09;;;;;;;182.10;102.22;;;;;;;19.02;69.50;98323.91;4894500;29;20684;-76
2023/04/17 10:48:55;;;;;;;152.32;86.72;;;;;;;19.15;67.06;98321.47;4893998;29;20056;-80
2023/04/17 10:51:20;;;;;;;136.13;76.10;;;;;;;19.32;65.64;98317.63;4932345;28;20039;-86
2023/04/17 10:53:58;;;;;;;117.43;71.40;;;;;;;19.41;65.59;98315.69;4975806;28;20033;-87
2023/04/17 10:56:29;;;;;;;101.15;62.22;;;;;;;19.59;64.69;98319.78;4982711;28;20038;-82
2023/04/17 10:59:11;;;;;;;79.82;47.65;;;;;;;19.94;66.42;98320.00;4975805;28;20030;-79
2023/04/17 11:01:37;;;;;;;58.85;35.53;;;;;;;19.95;64.63;98316.34;4976198;28;20054;-83
2023/04/17 11:04:04;;;;;;;49.78;30.00;;;;;;;19.90;64.02;98316.09;5000697;28;20029;-79
2023/04/17 11:06:30;;;;;;;47.90;31.20;;;;;;;20.08;64.15;98318.31;5002756;28;20033;-78
2023/04/17 11:08:56;;;;;;;42.30;25.48;;;;;;;20.22;62.98;98312.13;4998000;28;20063;-85
2023/04/17 11:11:21;;;;;;;31.38;21.25;;;;;;;20.33;61.39;98324.06;4995945;28;20029;-90
2023/04/17 11:13:47;;;;;;;33.00;19.85;;;;;;;20.35;62.18;98314.91;5007278;28;20049;-82
2023/04/17 11:16:16;;;;;;;41.05;25.27;;;;;;;20.39;63.64;98310.03;4988084;28;20026;-89
2023/04/17 11:21:15;;;;;;;26.40;15.63;;;;;;;20.05;61.39;98304.44;5051904;28;20047;-88
2023/04/17 11:23:49;;;;;;;20.77;12.70;;;;;;;19.90;60.75;98308.97;5009205;28;20588;-81
2023/04/17 11:26:22;;;;;;;17.95;11.00;;;;;;;19.70;61.03;98306.91;5018970;28;20030;-77
2023/04/17 11:28:49;;;;;;;17.67;10.10;;;;;;;19.48;61.18;98299.88;5018768;28;20025;-86
2023/04/17 11:31:14;;;;;;;11.50;7.97;;;;;;;19.46;60.37;98309.84;5018449;28;20688;-85
2023/04/17 11:33:40;;;;;;;12.65;7.63;;;;;;;19.37;60.58;98310.94;4991836;28;20091;-85
2023/04/17 11:36:07;;;;;;;10.45;6.63;;;;;;;19.28;60.05;98307.59;5003609;28;20033;-86
2023/04/17 11:38:32;;;;;;;12.18;5.97;;;;;;;19.20;60.45;98302.38;4989187;28;20040;-84